sensor_id;sensor_type;location;lat;lon;timestamp;temperature;humidity
8593;DHT22;4334;49.982;8.398;2023-08-17T00:00:59;18.40;99.90
8593;DHT22;4334;49.982;8.398;2023-08-17T00:03:26;18.40;99.90
8593;DHT22;4334;49.982;8.398;2023-08-17T00:05:53;19.90;99.90
8593;DHT22;4334;49.982;8.398;2023-08-17T00:08:20;18.30;99.90
8593;DHT22;4334;49.982;8.398;2023-08-17T00:10:47;18.30;99.90
8593;DHT22;4334;49.982;8.398;2023-08-17T00:13:16;18.30;99.90
8593;DHT22;4334;49.982;8.398;2023-08-17T00:15:44;18.30;99.90
8593;DHT22;4334;49.982;8.398;2023-08-17T00:18:12;18.20;99.90
8593;DHT22;4334;49.982;8.398;2023-08-17T00:20:39;18.20;99.90
8593;DHT22;4334;49.982;8.398;2023-08-17T00:23:05;18.10;99.90
8593;DHT22;4334;49.982;8.398;2023-08-17T00:25:32;18.00;99.90
8593;DHT22;4334;49.982;8.398;2023-08-17T00:30:26;17.90;99.90
8593;DHT22;4334;49.982;8.398;2023-08-17T00:32:57;18.00;99.90
8593;DHT22;4334;49.982;8.398;2023-08-17T00:35:24;18.20;99.90
8593;DHT22;4334;49.982;8.398;2023-08-17T00:37:50;18.10;99.90
8593;DHT22;4334;49.982;8.398;2023-08-17T00:40:17;17.90;99.90
8593;DHT22;4334;49.982;8.398;2023-08-17T00:42:44;17.80;99.90
8593;DHT22;4334;49.982;8.398;2023-08-17T00:45:17;17.80;99.90
8593;DHT22;4334;49.982;8.398;2023-08-17T00:47:45;17.80;99.90
8593;DHT22;4334;49.982;8.398;2023-08-17T00:50:14;17.80;99.90
8593;DHT22;4334;49.982;8.398;2023-08-17T00:52:42;19.70;99.90
8593;DHT22;4334;49.982;8.398;2023-08-17T00:55:12;17.80;99.90
8593;DHT22;4334;49.982;8.398;2023-08-17T00:57:42;17.80;99.90
8593;DHT22;4334;49.982;8.398;2023-08-17T01:00:10;17.80;99.90
8593;DHT22;4334;49.982;8.398;2023-08-17T01:02:38;18.00;99.90
8593;DHT22;4334;49.982;8.398;2023-08-17T01:05:06;18.20;99.90
8593;DHT22;4334;49.982;8.398;2023-08-17T01:07:34;18.10;99.90
8593;DHT22;4334;49.982;8.398;2023-08-17T01:10:04;18.20;99.90
8593;DHT22;4334;49.982;8.398;2023-08-17T01:12:34;18.10;99.90
8593;DHT22;4334;49.982;8.398;2023-08-17T01:15:08;18.10;99.90
8593;DHT22;4334;49.982;8.398;2023-08-17T01:17:42;18.20;99.90
8593;DHT22;4334;49.982;8.398;2023-08-17T01:20:10;18.40;99.90
8593;DHT22;4334;49.982;8.398;2023-08-17T01:22:41;18.40;99.90
8593;DHT22;4334;49.982;8.398;2023-08-17T01:25:12;18.50;99.90
8593;DHT22;4334;49.982;8.398;2023-08-17T01:27:40;18.50;99.90
8593;DHT22;4334;49.982;8.398;2023-08-17T01:30:32;18.40;99.90
8593;DHT22;4334;49.982;8.398;2023-08-17T01:33:07;18.50;99.90
8593;DHT22;4334;49.982;8.398;2023-08-17T01:35:38;18.40;99.90
8593;DHT22;4334;49.982;8.398;2023-08-17T01:38:07;18.40;99.90
8593;DHT22;4334;49.982;8.398;2023-08-17T01:40:38;18.30;99.90
8593;DHT22;4334;49.982;8.398;2023-08-17T01:43:05;18.30;99.90
8593;DHT22;4334;49.982;8.398;2023-08-17T01:45:32;18.30;99.90
8593;DHT22;4334;49.982;8.398;2023-08-17T01:48:13;18.20;99.90
8593;DHT22;4334;49.982;8.398;2023-08-17T01:50:40;18.10;99.90
8593;DHT22;4334;49.982;8.398;2023-08-17T01:53:06;18.10;99.90
8593;DHT22;4334;49.982;8.398;2023-08-17T01:55:33;18.00;99.90
8593;DHT22;4334;49.982;8.398;2023-08-17T01:58:02;18.00;99.90
8593;DHT22;4334;49.982;8.398;2023-08-17T02:00:29;17.90;99.90
8593;DHT22;4334;49.982;8.398;2023-08-17T02:02:56;17.90;99.90
8593;DHT22;4334;49.982;8.398;2023-08-17T02:05:23;20.70;99.90
8593;DHT22;4334;49.982;8.398;2023-08-17T02:07:49;17.80;99.90
8593;DHT22;4334;49.982;8.398;2023-08-17T02:10:16;17.80;99.90
8593;DHT22;4334;49.982;8.398;2023-08-17T02:12:43;17.80;99.90
8593;DHT22;4334;49.982;8.398;2023-08-17T02:15:11;17.80;99.90
8593;DHT22;4334;49.982;8.398;2023-08-17T02:17:38;17.80;99.90
8593;DHT22;4334;49.982;8.398;2023-08-17T02:20:07;17.80;99.90
8593;DHT22;4334;49.982;8.398;2023-08-17T02:22:34;17.80;99.90
8593;DHT22;4334;49.982;8.398;2023-08-17T02:25:01;17.90;99.90
8593;DHT22;4334;49.982;8.398;2023-08-17T02:27:28;20.00;99.90
8593;DHT22;4334;49.982;8.398;2023-08-17T02:29:56;17.80;99.90
8593;DHT22;4334;49.982;8.398;2023-08-17T02:32:24;17.90;99.90
8593;DHT22;4334;49.982;8.398;2023-08-17T02:34:51;17.90;99.90
8593;DHT22;4334;49.982;8.398;2023-08-17T02:37:18;17.90;99.90
8593;DHT22;4334;49.982;8.398;2023-08-17T02:39:45;18.60;99.90
8593;DHT22;4334;49.982;8.398;2023-08-17T02:42:11;17.90;99.90
8593;DHT22;4334;49.982;8.398;2023-08-17T02:44:41;17.90;99.90
8593;DHT22;4334;49.982;8.398;2023-08-17T02:47:08;17.90;99.90
8593;DHT22;4334;49.982;8.398;2023-08-17T02:49:36;17.80;99.90
8593;DHT22;4334;49.982;8.398;2023-08-17T02:52:03;17.80;99.90
8593;DHT22;4334;49.982;8.398;2023-08-17T02:54:30;17.70;99.90
8593;DHT22;4334;49.982;8.398;2023-08-17T02:56:57;17.70;99.90
8593;DHT22;4334;49.982;8.398;2023-08-17T02:59:24;17.80;99.90
8593;DHT22;4334;49.982;8.398;2023-08-17T03:01:54;17.70;99.90
8593;DHT22;4334;49.982;8.398;2023-08-17T03:04:21;17.70;99.90
8593;DHT22;4334;49.982;8.398;2023-08-17T03:06:49;17.70;99.90
8593;DHT22;4334;49.982;8.398;2023-08-17T03:09:16;17.70;99.90
8593;DHT22;4334;49.982;8.398;2023-08-17T03:11:43;17.60;99.90
8593;DHT22;4334;49.982;8.398;2023-08-17T03:14:10;17.60;99.90
8593;DHT22;4334;49.982;8.398;2023-08-17T03:16:37;17.60;99.90
8593;DHT22;4334;49.982;8.398;2023-08-17T03:19:04;17.60;99.90
8593;DHT22;4334;49.982;8.398;2023-08-17T03:21:33;17.50;99.90
8593;DHT22;4334;49.982;8.398;2023-08-17T03:24:01;17.50;99.90
8593;DHT22;4334;49.982;8.398;2023-08-17T03:26:28;19.40;99.90
8593;DHT22;4334;49.982;8.398;2023-08-17T03:28:55;17.50;99.90
8593;DHT22;4334;49.982;8.398;2023-08-17T03:31:22;17.50;99.90
8593;DHT22;4334;49.982;8.398;2023-08-17T03:33:49;17.50;99.90
8593;DHT22;4334;49.982;8.398;2023-08-17T03:36:15;17.50;99.90
8593;DHT22;4334;49.982;8.398;2023-08-17T03:38:42;17.50;99.90
8593;DHT22;4334;49.982;8.398;2023-08-17T03:41:10;17.50;99.90
8593;DHT22;4334;49.982;8.398;2023-08-17T03:43:37;17.50;99.90
8593;DHT22;4334;49.982;8.398;2023-08-17T03:46:04;17.40;99.90
8593;DHT22;4334;49.982;8.398;2023-08-17T03:48:31;17.40;99.90
8593;DHT22;4334;49.982;8.398;2023-08-17T03:50:58;17.40;99.90
8593;DHT22;4334;49.982;8.398;2023-08-17T03:53:26;17.40;99.90
8593;DHT22;4334;49.982;8.398;2023-08-17T03:55:53;17.30;99.90
8593;DHT22;4334;49.982;8.398;2023-08-17T03:58:21;17.30;99.90
8593;DHT22;4334;49.982;8.398;2023-08-17T04:00:49;19.00;99.90
8593;DHT22;4334;49.982;8.398;2023-08-17T04:03:16;17.30;99.90
8593;DHT22;4334;49.982;8.398;2023-08-17T04:05:42;17.20;99.90
8593;DHT22;4334;49.982;8.398;2023-08-17T04:08:09;17.10;99.90
8593;DHT22;4334;49.982;8.398;2023-08-17T04:10:36;17.30;99.90
8593;DHT22;4334;49.982;8.398;2023-08-17T04:13:03;17.10;99.90
8593;DHT22;4334;49.982;8.398;2023-08-17T04:15:31;20.80;99.90
8593;DHT22;4334;49.982;8.398;2023-08-17T04:17:58;17.10;99.90
8593;DHT22;4334;49.982;8.398;2023-08-17T04:20:25;17.10;99.90
8593;DHT22;4334;49.982;8.398;2023-08-17T04:22:52;17.20;99.90
8593;DHT22;4334;49.982;8.398;2023-08-17T04:25:19;17.10;99.90
8593;DHT22;4334;49.982;8.398;2023-08-17T04:27:45;17.00;99.90
8593;DHT22;4334;49.982;8.398;2023-08-17T04:30:12;17.10;99.90
8593;DHT22;4334;49.982;8.398;2023-08-17T04:32:40;17.10;99.90
8593;DHT22;4334;49.982;8.398;2023-08-17T04:35:08;17.10;99.90
8593;DHT22;4334;49.982;8.398;2023-08-17T04:37:35;17.10;99.90
8593;DHT22;4334;49.982;8.398;2023-08-17T04:40:02;17.20;99.90
8593;DHT22;4334;49.982;8.398;2023-08-17T04:42:30;17.10;99.90
8593;DHT22;4334;49.982;8.398;2023-08-17T04:44:57;17.20;99.90
8593;DHT22;4334;49.982;8.398;2023-08-17T04:47:24;19.70;99.90
8593;DHT22;4334;49.982;8.398;2023-08-17T04:49:52;17.10;99.90
8593;DHT22;4334;49.982;8.398;2023-08-17T04:52:19;20.00;99.90
8593;DHT22;4334;49.982;8.398;2023-08-17T04:54:45;17.10;99.90
8593;DHT22;4334;49.982;8.398;2023-08-17T04:57:12;19.50;99.90
8593;DHT22;4334;49.982;8.398;2023-08-17T04:59:39;17.20;99.90
8593;DHT22;4334;49.982;8.398;2023-08-17T05:02:06;17.30;99.90
8593;DHT22;4334;49.982;8.398;2023-08-17T05:04:33;17.40;99.90
8593;DHT22;4334;49.982;8.398;2023-08-17T05:07:01;17.60;99.90
8593;DHT22;4334;49.982;8.398;2023-08-17T05:09:28;17.90;99.90
8593;DHT22;4334;49.982;8.398;2023-08-17T05:14:23;18.40;99.90
8593;DHT22;4334;49.982;8.398;2023-08-17T05:16:49;18.50;99.90
8593;DHT22;4334;49.982;8.398;2023-08-17T05:19:16;18.70;99.90
8593;DHT22;4334;49.982;8.398;2023-08-17T05:21:43;18.90;99.90
8593;DHT22;4334;49.982;8.398;2023-08-17T05:24:11;19.10;99.90
8593;DHT22;4334;49.982;8.398;2023-08-17T05:26:38;19.10;99.90
8593;DHT22;4334;49.982;8.398;2023-08-17T05:29:05;19.50;99.90
8593;DHT22;4334;49.982;8.398;2023-08-17T05:31:31;19.70;99.90
8593;DHT22;4334;49.982;8.398;2023-08-17T05:33:58;19.60;99.90
8593;DHT22;4334;49.982;8.398;2023-08-17T05:36:25;19.70;99.90
8593;DHT22;4334;49.982;8.398;2023-08-17T05:38:52;20.10;99.90
8593;DHT22;4334;49.982;8.398;2023-08-17T05:41:20;20.30;99.90
8593;DHT22;4334;49.982;8.398;2023-08-17T05:44:02;20.60;99.90
8593;DHT22;4334;49.982;8.398;2023-08-17T05:46:29;20.70;99.90
8593;DHT22;4334;49.982;8.398;2023-08-17T05:48:55;22.30;99.90
8593;DHT22;4334;49.982;8.398;2023-08-17T05:51:22;21.60;99.90
8593;DHT22;4334;49.982;8.398;2023-08-17T05:53:49;22.10;99.90
8593;DHT22;4334;49.982;8.398;2023-08-17T05:56:16;22.60;99.90
8593;DHT22;4334;49.982;8.398;2023-08-17T05:58:44;22.70;99.90
8593;DHT22;4334;49.982;8.398;2023-08-17T06:01:11;23.20;99.90
8593;DHT22;4334;49.982;8.398;2023-08-17T06:03:38;23.40;99.90
8593;DHT22;4334;49.982;8.398;2023-08-17T06:06:05;23.60;99.90
8593;DHT22;4334;49.982;8.398;2023-08-17T06:08:32;23.40;99.90
8593;DHT22;4334;49.982;8.398;2023-08-17T06:10:59;23.10;99.90
8593;DHT22;4334;49.982;8.398;2023-08-17T06:13:25;26.50;99.90
8593;DHT22;4334;49.982;8.398;2023-08-17T06:15:54;23.70;99.90
8593;DHT22;4334;49.982;8.398;2023-08-17T06:18:22;23.70;99.90
8593;DHT22;4334;49.982;8.398;2023-08-17T06:20:51;23.70;99.90
8593;DHT22;4334;49.982;8.398;2023-08-17T06:23:19;23.60;99.90
8593;DHT22;4334;49.982;8.398;2023-08-17T06:25:46;24.00;99.90
8593;DHT22;4334;49.982;8.398;2023-08-17T06:28:12;28.30;99.90
8593;DHT22;4334;49.982;8.398;2023-08-17T06:30:39;24.20;99.90
8593;DHT22;4334;49.982;8.398;2023-08-17T06:33:07;24.50;99.90
8593;DHT22;4334;49.982;8.398;2023-08-17T06:35:34;24.90;99.90
8593;DHT22;4334;49.982;8.398;2023-08-17T06:38:01;24.40;99.90
8593;DHT22;4334;49.982;8.398;2023-08-17T06:40:28;24.20;99.90
8593;DHT22;4334;49.982;8.398;2023-08-17T06:42:55;23.70;99.90
8593;DHT22;4334;49.982;8.398;2023-08-17T06:45:21;23.60;99.90
8593;DHT22;4334;49.982;8.398;2023-08-17T06:47:48;23.60;99.90
8593;DHT22;4334;49.982;8.398;2023-08-17T06:50:16;23.40;99.90
8593;DHT22;4334;49.982;8.398;2023-08-17T06:52:43;23.30;99.90
8593;DHT22;4334;49.982;8.398;2023-08-17T06:55:10;23.90;99.90
8593;DHT22;4334;49.982;8.398;2023-08-17T06:57:37;24.00;99.90
8593;DHT22;4334;49.982;8.398;2023-08-17T07:00:04;23.60;99.90
8593;DHT22;4334;49.982;8.398;2023-08-17T07:02:33;23.50;99.90
8593;DHT22;4334;49.982;8.398;2023-08-17T07:05:00;23.40;99.90
8593;DHT22;4334;49.982;8.398;2023-08-17T07:07:28;23.50;99.90
8593;DHT22;4334;49.982;8.398;2023-08-17T07:09:55;25.60;99.90
8593;DHT22;4334;49.982;8.398;2023-08-17T07:12:22;23.30;99.90
8593;DHT22;4334;49.982;8.398;2023-08-17T07:14:50;23.20;99.90
8593;DHT22;4334;49.982;8.398;2023-08-17T07:17:17;23.10;99.90
8593;DHT22;4334;49.982;8.398;2023-08-17T07:19:43;22.70;99.90
8593;DHT22;4334;49.982;8.398;2023-08-17T07:22:10;22.50;99.90
8593;DHT22;4334;49.982;8.398;2023-08-17T07:24:38;22.90;99.90
8593;DHT22;4334;49.982;8.398;2023-08-17T07:27:05;25.20;99.90
8593;DHT22;4334;49.982;8.398;2023-08-17T07:29:32;23.90;99.90
8593;DHT22;4334;49.982;8.398;2023-08-17T07:31:58;24.40;99.90
8593;DHT22;4334;49.982;8.398;2023-08-17T07:34:27;24.60;99.90
8593;DHT22;4334;49.982;8.398;2023-08-17T07:36:54;24.80;99.90
8593;DHT22;4334;49.982;8.398;2023-08-17T07:39:21;24.30;99.90
8593;DHT22;4334;49.982;8.398;2023-08-17T07:41:49;27.10;99.90
8593;DHT22;4334;49.982;8.398;2023-08-17T07:44:16;27.30;99.90
8593;DHT22;4334;49.982;8.398;2023-08-17T07:46:43;23.40;99.90
8593;DHT22;4334;49.982;8.398;2023-08-17T07:49:09;23.40;99.90
8593;DHT22;4334;49.982;8.398;2023-08-17T07:51:36;23.50;99.90
8593;DHT22;4334;49.982;8.398;2023-08-17T07:54:03;24.70;99.90
8593;DHT22;4334;49.982;8.398;2023-08-17T07:56:30;25.70;99.90
8593;DHT22;4334;49.982;8.398;2023-08-17T07:58:58;27.10;99.90
8593;DHT22;4334;49.982;8.398;2023-08-17T08:01:25;25.90;99.90
8593;DHT22;4334;49.982;8.398;2023-08-17T08:03:52;28.50;99.90
8593;DHT22;4334;49.982;8.398;2023-08-17T08:06:18;25.20;99.90
8593;DHT22;4334;49.982;8.398;2023-08-17T08:08:46;24.20;99.90
8593;DHT22;4334;49.982;8.398;2023-08-17T08:11:12;23.70;99.90
8593;DHT22;4334;49.982;8.398;2023-08-17T08:13:39;23.30;99.90
8593;DHT22;4334;49.982;8.398;2023-08-17T08:16:07;26.80;99.90
8593;DHT22;4334;49.982;8.398;2023-08-17T08:18:34;23.30;99.90
8593;DHT22;4334;49.982;8.398;2023-08-17T08:21:01;23.60;99.90
8593;DHT22;4334;49.982;8.398;2023-08-17T08:23:27;23.60;99.90
8593;DHT22;4334;49.982;8.398;2023-08-17T08:25:55;24.10;99.90
8593;DHT22;4334;49.982;8.398;2023-08-17T08:28:23;24.10;99.90
8593;DHT22;4334;49.982;8.398;2023-08-17T08:30:50;23.90;99.90
8593;DHT22;4334;49.982;8.398;2023-08-17T08:33:18;23.70;99.90
8593;DHT22;4334;49.982;8.398;2023-08-17T08:35:45;24.20;99.90
8593;DHT22;4334;49.982;8.398;2023-08-17T08:38:14;24.50;99.90
8593;DHT22;4334;49.982;8.398;2023-08-17T08:40:41;25.10;99.90
8593;DHT22;4334;49.982;8.398;2023-08-17T08:43:08;25.80;99.90
8593;DHT22;4334;49.982;8.398;2023-08-17T08:45:36;26.50;99.90
8593;DHT22;4334;49.982;8.398;2023-08-17T08:48:04;26.60;99.90
8593;DHT22;4334;49.982;8.398;2023-08-17T08:50:35;25.80;99.90
8593;DHT22;4334;49.982;8.398;2023-08-17T08:53:03;26.10;99.90
8593;DHT22;4334;49.982;8.398;2023-08-17T08:55:34;26.00;99.90
8593;DHT22;4334;49.982;8.398;2023-08-17T08:58:04;26.40;99.90
8593;DHT22;4334;49.982;8.398;2023-08-17T09:00:31;26.40;99.90
8593;DHT22;4334;49.982;8.398;2023-08-17T09:02:59;29.70;99.90
8593;DHT22;4334;49.982;8.398;2023-08-17T09:05:28;26.80;99.90
8593;DHT22;4334;49.982;8.398;2023-08-17T09:07:56;26.60;99.90
8593;DHT22;4334;49.982;8.398;2023-08-17T09:10:24;26.70;99.90
8593;DHT22;4334;49.982;8.398;2023-08-17T09:12:54;27.00;99.90
8593;DHT22;4334;49.982;8.398;2023-08-17T09:15:20;27.10;99.90
8593;DHT22;4334;49.982;8.398;2023-08-17T09:17:47;26.90;99.90
8593;DHT22;4334;49.982;8.398;2023-08-17T09:20:36;26.90;99.90
8593;DHT22;4334;49.982;8.398;2023-08-17T09:23:06;26.30;99.90
8593;DHT22;4334;49.982;8.398;2023-08-17T09:25:38;26.20;99.90
8593;DHT22;4334;49.982;8.398;2023-08-17T09:28:07;26.40;99.90
8593;DHT22;4334;49.982;8.398;2023-08-17T09:30:52;26.90;99.90
8593;DHT22;4334;49.982;8.398;2023-08-17T09:33:20;26.20;99.90
8593;DHT22;4334;49.982;8.398;2023-08-17T09:35:48;26.60;99.90
8593;DHT22;4334;49.982;8.398;2023-08-17T09:38:16;26.20;99.90
8593;DHT22;4334;49.982;8.398;2023-08-17T09:40:43;26.70;99.90
8593;DHT22;4334;49.982;8.398;2023-08-17T09:43:10;26.80;99.90
8593;DHT22;4334;49.982;8.398;2023-08-17T09:45:37;25.40;99.90
8593;DHT22;4334;49.982;8.398;2023-08-17T09:48:05;25.20;99.90
8593;DHT22;4334;49.982;8.398;2023-08-17T09:50:32;25.90;99.90
8593;DHT22;4334;49.982;8.398;2023-08-17T09:52:59;26.40;99.90
8593;DHT22;4334;49.982;8.398;2023-08-17T09:55:29;27.30;99.90
8593;DHT22;4334;49.982;8.398;2023-08-17T09:57:57;30.80;99.90
8593;DHT22;4334;49.982;8.398;2023-08-17T10:00:25;28.30;99.90
8593;DHT22;4334;49.982;8.398;2023-08-17T10:02:53;27.80;99.90
8593;DHT22;4334;49.982;8.398;2023-08-17T10:05:22;28.10;99.90
8593;DHT22;4334;49.982;8.398;2023-08-17T10:07:53;29.00;99.90
8593;DHT22;4334;49.982;8.398;2023-08-17T10:10:24;30.30;99.90
8593;DHT22;4334;49.982;8.398;2023-08-17T10:12:57;28.90;99.90
8593;DHT22;4334;49.982;8.398;2023-08-17T10:15:30;28.80;99.90
8593;DHT22;4334;49.982;8.398;2023-08-17T10:18:02;29.00;99.90
8593;DHT22;4334;49.982;8.398;2023-08-17T10:20:34;28.40;99.90
8593;DHT22;4334;49.982;8.398;2023-08-17T10:23:07;27.80;99.90
8593;DHT22;4334;49.982;8.398;2023-08-17T10:25:39;28.10;99.90
8593;DHT22;4334;49.982;8.398;2023-08-17T10:28:10;28.90;99.90
8593;DHT22;4334;49.982;8.398;2023-08-17T10:30:37;28.20;99.90
8593;DHT22;4334;49.982;8.398;2023-08-17T10:33:05;28.50;99.90
8593;DHT22;4334;49.982;8.398;2023-08-17T10:35:32;29.60;99.90
8593;DHT22;4334;49.982;8.398;2023-08-17T10:38:00;29.00;99.90
8593;DHT22;4334;49.982;8.398;2023-08-17T10:40:34;28.60;99.90
8593;DHT22;4334;49.982;8.398;2023-08-17T10:43:01;28.70;99.90
8593;DHT22;4334;49.982;8.398;2023-08-17T10:45:31;29.70;99.90
8593;DHT22;4334;49.982;8.398;2023-08-17T10:51:02;30.30;99.90
8593;DHT22;4334;49.982;8.398;2023-08-17T10:53:34;31.70;99.90
8593;DHT22;4334;49.982;8.398;2023-08-17T10:56:01;29.80;99.90
8593;DHT22;4334;49.982;8.398;2023-08-17T10:58:31;29.40;99.90
8593;DHT22;4334;49.982;8.398;2023-08-17T11:01:00;30.70;99.90
8593;DHT22;4334;49.982;8.398;2023-08-17T11:03:27;30.70;99.90
8593;DHT22;4334;49.982;8.398;2023-08-17T11:05:55;30.80;99.90
8593;DHT22;4334;49.982;8.398;2023-08-17T11:08:23;31.00;99.90
8593;DHT22;4334;49.982;8.398;2023-08-17T11:10:58;31.00;99.90
8593;DHT22;4334;49.982;8.398;2023-08-17T11:13:27;31.30;99.90
8593;DHT22;4334;49.982;8.398;2023-08-17T11:15:54;31.50;99.90
8593;DHT22;4334;49.982;8.398;2023-08-17T11:18:23;35.20;99.90
8593;DHT22;4334;49.982;8.398;2023-08-17T11:20:53;31.30;99.90
8593;DHT22;4334;49.982;8.398;2023-08-17T11:23:20;30.70;99.90
8593;DHT22;4334;49.982;8.398;2023-08-17T11:25:47;30.40;99.90
8593;DHT22;4334;49.982;8.398;2023-08-17T11:28:16;31.00;99.90
8593;DHT22;4334;49.982;8.398;2023-08-17T11:30:43;31.60;99.90
8593;DHT22;4334;49.982;8.398;2023-08-17T11:33:10;30.90;99.90
8593;DHT22;4334;49.982;8.398;2023-08-17T11:35:39;31.10;99.90
8593;DHT22;4334;49.982;8.398;2023-08-17T11:38:06;31.30;99.90
8593;DHT22;4334;49.982;8.398;2023-08-17T11:40:33;30.80;99.90
8593;DHT22;4334;49.982;8.398;2023-08-17T11:43:00;31.20;99.90
8593;DHT22;4334;49.982;8.398;2023-08-17T11:45:27;32.00;99.90
8593;DHT22;4334;49.982;8.398;2023-08-17T11:47:55;32.70;99.90
8593;DHT22;4334;49.982;8.398;2023-08-17T11:50:24;32.90;99.90
8593;DHT22;4334;49.982;8.398;2023-08-17T11:52:53;32.60;99.90
8593;DHT22;4334;49.982;8.398;2023-08-17T11:55:19;32.60;99.90
8593;DHT22;4334;49.982;8.398;2023-08-17T11:57:46;32.10;99.90
8593;DHT22;4334;49.982;8.398;2023-08-17T12:00:18;32.00;99.90
8593;DHT22;4334;49.982;8.398;2023-08-17T12:02:47;31.20;99.90
8593;DHT22;4334;49.982;8.398;2023-08-17T12:05:19;32.10;99.90
8593;DHT22;4334;49.982;8.398;2023-08-17T12:07:45;32.10;99.90
8593;DHT22;4334;49.982;8.398;2023-08-17T12:10:14;32.00;99.90
8593;DHT22;4334;49.982;8.398;2023-08-17T12:12:41;36.30;99.90
8593;DHT22;4334;49.982;8.398;2023-08-17T12:15:10;31.10;99.90
8593;DHT22;4334;49.982;8.398;2023-08-17T12:17:44;31.00;99.90
8593;DHT22;4334;49.982;8.398;2023-08-17T12:20:16;32.10;99.90
8593;DHT22;4334;49.982;8.398;2023-08-17T12:22:43;32.70;99.90
8593;DHT22;4334;49.982;8.398;2023-08-17T12:25:10;33.80;99.90
8593;DHT22;4334;49.982;8.398;2023-08-17T12:27:39;32.30;99.90
8593;DHT22;4334;49.982;8.398;2023-08-17T12:30:12;32.70;99.90
8593;DHT22;4334;49.982;8.398;2023-08-17T12:32:39;33.10;99.90
8593;DHT22;4334;49.982;8.398;2023-08-17T12:35:07;33.30;99.90
8593;DHT22;4334;49.982;8.398;2023-08-17T12:37:34;32.90;99.90
8593;DHT22;4334;49.982;8.398;2023-08-17T12:40:01;32.60;99.90
8593;DHT22;4334;49.982;8.398;2023-08-17T12:42:29;32.40;99.90
8593;DHT22;4334;49.982;8.398;2023-08-17T12:44:58;34.80;99.90
8593;DHT22;4334;49.982;8.398;2023-08-17T12:47:26;32.10;99.90
8593;DHT22;4334;49.982;8.398;2023-08-17T12:49:53;32.10;99.90
8593;DHT22;4334;49.982;8.398;2023-08-17T12:52:20;32.80;99.90
8593;DHT22;4334;49.982;8.398;2023-08-17T12:54:46;32.60;99.90
8593;DHT22;4334;49.982;8.398;2023-08-17T12:57:13;33.50;99.90
8593;DHT22;4334;49.982;8.398;2023-08-17T12:59:40;31.80;99.90
8593;DHT22;4334;49.982;8.398;2023-08-17T13:02:08;33.10;99.90
8593;DHT22;4334;49.982;8.398;2023-08-17T13:04:35;31.50;99.90
8593;DHT22;4334;49.982;8.398;2023-08-17T13:07:02;30.60;99.90
8593;DHT22;4334;49.982;8.398;2023-08-17T13:09:29;30.50;99.90
8593;DHT22;4334;49.982;8.398;2023-08-17T13:14:23;29.00;99.90
8593;DHT22;4334;49.982;8.398;2023-08-17T13:16:49;29.20;99.90
8593;DHT22;4334;49.982;8.398;2023-08-17T13:19:17;29.40;99.90
8593;DHT22;4334;49.982;8.398;2023-08-17T13:21:44;29.40;99.90
8593;DHT22;4334;49.982;8.398;2023-08-17T13:24:12;29.90;99.90
8593;DHT22;4334;49.982;8.398;2023-08-17T13:26:39;30.80;99.90
8593;DHT22;4334;49.982;8.398;2023-08-17T13:29:06;30.80;99.90
8593;DHT22;4334;49.982;8.398;2023-08-17T13:31:34;31.30;99.90
8593;DHT22;4334;49.982;8.398;2023-08-17T13:34:01;31.20;99.90
8593;DHT22;4334;49.982;8.398;2023-08-17T13:36:30;30.90;99.90
8593;DHT22;4334;49.982;8.398;2023-08-17T13:38:57;30.50;99.90
8593;DHT22;4334;49.982;8.398;2023-08-17T13:41:24;30.80;99.90
8593;DHT22;4334;49.982;8.398;2023-08-17T13:43:50;30.60;99.90
8593;DHT22;4334;49.982;8.398;2023-08-17T13:46:17;32.50;99.90
8593;DHT22;4334;49.982;8.398;2023-08-17T13:48:44;31.50;99.90
8593;DHT22;4334;49.982;8.398;2023-08-17T13:51:11;32.40;99.90
8593;DHT22;4334;49.982;8.398;2023-08-17T13:53:39;32.30;99.90
8593;DHT22;4334;49.982;8.398;2023-08-17T13:56:06;32.00;99.90
8593;DHT22;4334;49.982;8.398;2023-08-17T13:58:32;35.60;99.90
8593;DHT22;4334;49.982;8.398;2023-08-17T14:00:59;31.20;99.90
8593;DHT22;4334;49.982;8.398;2023-08-17T14:03:26;31.60;99.90
8593;DHT22;4334;49.982;8.398;2023-08-17T14:05:55;33.20;99.90
8593;DHT22;4334;49.982;8.398;2023-08-17T14:08:21;30.70;99.90
8593;DHT22;4334;49.982;8.398;2023-08-17T14:10:50;30.40;99.90
8593;DHT22;4334;49.982;8.398;2023-08-17T14:13:20;30.20;99.90
8593;DHT22;4334;49.982;8.398;2023-08-17T14:15:46;31.80;99.90
8593;DHT22;4334;49.982;8.398;2023-08-17T14:18:13;30.70;99.90
8593;DHT22;4334;49.982;8.398;2023-08-17T14:20:40;32.00;99.90
8593;DHT22;4334;49.982;8.398;2023-08-17T14:23:06;34.00;99.90
8593;DHT22;4334;49.982;8.398;2023-08-17T14:25:33;35.10;99.90
8593;DHT22;4334;49.982;8.398;2023-08-17T14:28:04;34.60;99.90
8593;DHT22;4334;49.982;8.398;2023-08-17T14:30:30;33.70;99.90
8593;DHT22;4334;49.982;8.398;2023-08-17T14:32:57;32.50;99.90
8593;DHT22;4334;49.982;8.398;2023-08-17T14:35:25;32.40;99.90
8593;DHT22;4334;49.982;8.398;2023-08-17T14:37:53;34.30;99.90
8593;DHT22;4334;49.982;8.398;2023-08-17T14:40:23;35.70;99.90
8593;DHT22;4334;49.982;8.398;2023-08-17T14:42:49;35.50;99.90
8593;DHT22;4334;49.982;8.398;2023-08-17T14:45:18;30.80;99.90
8593;DHT22;4334;49.982;8.398;2023-08-17T14:47:45;30.00;99.90
8593;DHT22;4334;49.982;8.398;2023-08-17T14:50:12;29.50;99.90
8593;DHT22;4334;49.982;8.398;2023-08-17T14:52:39;33.90;99.90
8593;DHT22;4334;49.982;8.398;2023-08-17T14:55:07;28.90;99.90
8593;DHT22;4334;49.982;8.398;2023-08-17T14:57:34;29.30;99.90
8593;DHT22;4334;49.982;8.398;2023-08-17T15:02:30;31.60;99.90
8593;DHT22;4334;49.982;8.398;2023-08-17T15:04:56;32.50;99.90
8593;DHT22;4334;49.982;8.398;2023-08-17T15:07:23;33.30;99.90
8593;DHT22;4334;49.982;8.398;2023-08-17T15:09:50;33.90;99.50
8593;DHT22;4334;49.982;8.398;2023-08-17T15:12:18;34.30;99.80
8593;DHT22;4334;49.982;8.398;2023-08-17T15:14:45;34.30;99.70
8593;DHT22;4334;49.982;8.398;2023-08-17T15:17:11;34.10;99.30
8593;DHT22;4334;49.982;8.398;2023-08-17T15:19:40;33.20;99.90
8593;DHT22;4334;49.982;8.398;2023-08-17T15:22:06;33.10;99.90
8593;DHT22;4334;49.982;8.398;2023-08-17T15:24:33;33.10;99.90
8593;DHT22;4334;49.982;8.398;2023-08-17T15:27:00;33.30;99.90
8593;DHT22;4334;49.982;8.398;2023-08-17T15:29:27;33.20;99.90
8593;DHT22;4334;49.982;8.398;2023-08-17T15:31:53;34.30;99.90
8593;DHT22;4334;49.982;8.398;2023-08-17T15:34:20;34.50;99.50
8593;DHT22;4334;49.982;8.398;2023-08-17T15:36:48;34.00;99.90
8593;DHT22;4334;49.982;8.398;2023-08-17T15:39:15;38.40;99.90
8593;DHT22;4334;49.982;8.398;2023-08-17T15:41:42;33.40;99.90
8593;DHT22;4334;49.982;8.398;2023-08-17T15:44:09;33.40;99.90
8593;DHT22;4334;49.982;8.398;2023-08-17T15:46:35;33.90;99.60
8593;DHT22;4334;49.982;8.398;2023-08-17T15:49:02;33.70;99.90
8593;DHT22;4334;49.982;8.398;2023-08-17T15:51:29;33.60;99.70
8593;DHT22;4334;49.982;8.398;2023-08-17T15:53:57;33.80;99.50
8593;DHT22;4334;49.982;8.398;2023-08-17T15:56:24;34.10;99.10
8593;DHT22;4334;49.982;8.398;2023-08-17T15:58:51;33.70;99.40
8593;DHT22;4334;49.982;8.398;2023-08-17T16:01:17;34.00;99.30
8593;DHT22;4334;49.982;8.398;2023-08-17T16:03:44;33.70;99.10
8593;DHT22;4334;49.982;8.398;2023-08-17T16:06:11;34.40;98.30
8593;DHT22;4334;49.982;8.398;2023-08-17T16:08:40;34.00;98.80
8593;DHT22;4334;49.982;8.398;2023-08-17T16:11:09;33.70;99.60
8593;DHT22;4334;49.982;8.398;2023-08-17T16:13:35;33.70;99.40
8593;DHT22;4334;49.982;8.398;2023-08-17T16:18:30;33.20;99.90
8593;DHT22;4334;49.982;8.398;2023-08-17T16:20:56;33.40;99.90